createdAt,value
2018-08-04T00:00:55.768Z,1014.24
2018-08-04T00:01:55.813Z,1014.26
2018-08-04T00:02:55.818Z,1014.25
2018-08-04T00:03:55.845Z,1014.22
2018-08-04T00:04:55.870Z,1014.22
2018-08-04T00:05:55.897Z,1014.18
2018-08-04T00:06:55.922Z,1014.22
2018-08-04T00:07:55.959Z,1014.21
2018-08-04T00:08:55.973Z,1014.17
2018-08-04T00:09:56.000Z,1014.16
2018-08-04T00:10:56.027Z,1014.14
2018-08-04T00:11:56.056Z,1014.13
2018-08-04T00:12:56.077Z,1014.1
2018-08-04T00:13:56.102Z,1014.11
2018-08-04T00:14:56.127Z,1014.1
2018-08-04T00:15:56.153Z,1014.09
2018-08-04T00:17:56.206Z,1014.07
2018-08-04T00:18:56.231Z,1014.05
2018-08-04T00:19:56.257Z,1014.03
2018-08-04T00:20:56.282Z,1014.02
2018-08-04T00:21:56.309Z,1014
2018-08-04T00:22:56.338Z,1013.99
2018-08-04T00:23:56.360Z,1014
2018-08-04T00:24:56.385Z,1013.98
2018-08-04T00:25:56.411Z,1013.96
2018-08-04T00:26:56.435Z,1013.98
2018-08-04T00:27:56.462Z,1013.96
2018-08-04T00:28:56.488Z,1013.96
2018-08-04T00:29:56.514Z,1013.98
2018-08-04T00:30:56.539Z,1013.95
2018-08-04T00:31:56.565Z,1013.95
2018-08-04T00:33:56.617Z,1013.98
2018-08-04T00:34:56.640Z,1013.99
2018-08-04T00:35:56.667Z,1013.94
2018-08-04T00:36:56.697Z,1013.96
2018-08-04T00:37:56.718Z,1013.94
2018-08-04T00:38:56.744Z,1013.94
2018-08-04T00:39:56.770Z,1013.92
2018-08-04T00:40:56.794Z,1013.92
2018-08-04T00:41:56.820Z,1013.91
2018-08-04T00:42:56.847Z,1013.9
2018-08-04T00:43:56.872Z,1013.93
2018-08-04T00:44:56.898Z,1013.89
2018-08-04T00:45:56.923Z,1013.9
2018-08-04T00:46:56.948Z,1013.91
2018-08-04T00:47:56.974Z,1013.87
2018-08-04T00:49:57.066Z,1013.92
2018-08-04T00:50:57.051Z,1013.9
2018-08-04T00:51:57.077Z,1013.9
2018-08-04T00:52:57.100Z,1013.94
2018-08-04T00:53:57.127Z,1013.93
2018-08-04T00:54:57.153Z,1013.89
2018-08-04T00:55:57.180Z,1013.92
2018-08-04T00:56:57.204Z,1013.88
2018-08-04T00:57:57.229Z,1013.88
2018-08-04T00:58:57.255Z,1013.84
2018-08-04T00:59:57.282Z,1013.83
2018-08-04T01:00:57.304Z,1013.81
2018-08-04T01:01:57.332Z,1013.79
2018-08-04T01:02:57.357Z,1013.77
2018-08-04T01:03:57.382Z,1013.79
2018-08-04T01:05:57.433Z,1013.77
2018-08-04T01:06:57.459Z,1013.78
2018-08-04T01:07:57.483Z,1013.76
2018-08-04T01:08:57.510Z,1013.72
2018-08-04T01:09:57.535Z,1013.77
2018-08-04T01:10:57.562Z,1013.7
2018-08-04T01:11:57.586Z,1013.72
2018-08-04T01:12:57.611Z,1013.75
2018-08-04T01:13:57.674Z,1013.71
2018-08-04T01:14:57.662Z,1013.73
2018-08-04T01:15:57.688Z,1013.7
2018-08-04T01:16:57.714Z,1013.73
2018-08-04T01:17:57.743Z,1013.7
2018-08-04T01:18:57.764Z,1013.72
2018-08-04T01:20:57.817Z,1013.73
2018-08-04T01:21:57.839Z,1013.74
2018-08-04T01:22:57.866Z,1013.74
2018-08-04T01:23:57.892Z,1013.73
2018-08-04T01:24:57.917Z,1013.71
2018-08-04T01:25:57.943Z,1013.7
2018-08-04T01:26:57.969Z,1013.73
2018-08-04T01:27:57.994Z,1013.73
2018-08-04T01:28:58.017Z,1013.7
2018-08-04T01:29:58.143Z,1013.7
2018-08-04T01:30:58.069Z,1013.69
2018-08-04T01:31:58.096Z,1013.68
2018-08-04T01:32:58.120Z,1013.69
2018-08-04T01:33:58.216Z,1013.64
2018-08-04T01:34:58.172Z,1013.62
2018-08-04T01:35:58.198Z,1013.64
2018-08-04T01:36:58.224Z,1013.6
2018-08-04T01:37:58.247Z,1013.6
2018-08-04T01:38:58.273Z,1013.59
2018-08-04T01:39:58.297Z,1013.61
2018-08-04T01:40:58.323Z,1013.61
2018-08-04T01:41:58.348Z,1013.59
2018-08-04T01:42:58.373Z,1013.59
2018-08-04T01:43:58.399Z,1013.63
2018-08-04T01:44:58.424Z,1013.66
2018-08-04T01:45:58.456Z,1013.6
2018-08-04T01:46:58.476Z,1013.6
2018-08-04T01:47:58.499Z,1013.58
2018-08-04T01:48:58.526Z,1013.58
2018-08-04T01:49:58.552Z,1013.6
2018-08-04T01:50:58.576Z,1013.59
2018-08-04T01:52:58.636Z,1013.59
2018-08-04T01:53:58.653Z,1013.58
2018-08-04T01:54:58.677Z,1013.56
2018-08-04T01:55:58.702Z,1013.56
2018-08-04T01:56:58.727Z,1013.57
2018-08-04T01:57:58.758Z,1013.54
2018-08-04T01:58:58.779Z,1013.54
2018-08-04T01:59:58.803Z,1013.56
2018-08-04T02:00:58.829Z,1013.52
2018-08-04T02:01:58.854Z,1013.53
2018-08-04T02:02:58.880Z,1013.52
2018-08-04T02:03:58.909Z,1013.51
2018-08-04T02:04:58.930Z,1013.52
2018-08-04T02:05:58.955Z,1013.47
2018-08-04T02:06:58.979Z,1013.52
2018-08-04T02:08:59.031Z,1013.55
2018-08-04T02:09:59.056Z,1013.53
2018-08-04T02:10:59.104Z,1013.51
2018-08-04T02:11:59.106Z,1013.51
2018-08-04T02:12:59.132Z,1013.52
2018-08-04T02:13:59.156Z,1013.48
2018-08-04T02:14:59.182Z,1013.49
2018-08-04T02:15:59.207Z,1013.51
2018-08-04T02:16:59.246Z,1013.54
2018-08-04T02:17:59.257Z,1013.53
2018-08-04T02:18:59.283Z,1013.55
2018-08-04T02:19:59.308Z,1013.52
2018-08-04T02:20:59.333Z,1013.49
2018-08-04T02:21:59.360Z,1013.51
2018-08-04T02:22:59.383Z,1013.49
2018-08-04T02:24:59.435Z,1013.48
2018-08-04T02:25:59.457Z,1013.44
2018-08-04T02:26:59.484Z,1013.46
2018-08-04T02:27:59.507Z,1013.43
2018-08-04T02:28:59.533Z,1013.41
2018-08-04T02:29:59.559Z,1013.41
2018-08-04T02:30:59.585Z,1013.41
2018-08-04T02:31:59.609Z,1013.38
2018-08-04T02:32:59.683Z,1013.35
2018-08-04T02:33:59.659Z,1013.36
2018-08-04T02:34:59.685Z,1013.38
2018-08-04T02:35:59.710Z,1013.37
2018-08-04T02:36:59.740Z,1013.35
2018-08-04T02:37:59.773Z,1013.37
2018-08-04T02:38:59.784Z,1013.38
2018-08-04T02:40:59.835Z,1013.35
2018-08-04T02:41:59.859Z,1013.36
2018-08-04T02:42:59.885Z,1013.37
2018-08-04T02:43:59.913Z,1013.36
2018-08-04T02:44:59.940Z,1013.37
2018-08-04T02:45:59.960Z,1013.3
2018-08-04T02:46:59.985Z,1013.34
2018-08-04T02:48:00.011Z,1013.31
2018-08-04T02:49:00.036Z,1013.34
2018-08-04T02:50:00.060Z,1013.31
2018-08-04T02:51:00.087Z,1013.3
2018-08-04T02:52:00.111Z,1013.27
2018-08-04T02:53:00.136Z,1013.27
2018-08-04T02:54:00.161Z,1013.25
2018-08-04T02:56:00.213Z,1013.29
2018-08-04T02:57:00.237Z,1013.3
2018-08-04T02:58:00.262Z,1013.29
2018-08-04T02:59:00.285Z,1013.29
2018-08-04T03:00:00.312Z,1013.27
2018-08-04T03:01:00.336Z,1013.27
2018-08-04T03:02:00.362Z,1013.26
2018-08-04T03:03:00.386Z,1013.27
2018-08-04T03:04:00.436Z,1013.3
2018-08-04T03:05:00.437Z,1013.3
2018-08-04T03:06:00.462Z,1013.31
2018-08-04T03:07:00.489Z,1013.31
2018-08-04T03:08:00.512Z,1013.33
2018-08-04T03:09:00.538Z,1013.33
2018-08-04T03:10:00.565Z,1013.29
2018-08-04T03:11:00.588Z,1013.31
2018-08-04T03:12:00.611Z,1013.29
2018-08-04T03:13:00.637Z,1013.28
2018-08-04T03:14:00.662Z,1013.31
2018-08-04T03:15:00.687Z,1013.31
2018-08-04T03:16:00.716Z,1013.34
2018-08-04T03:17:00.736Z,1013.36
2018-08-04T03:18:00.761Z,1013.35
2018-08-04T03:19:00.790Z,1013.35
2018-08-04T03:20:00.821Z,1013.36
2018-08-04T03:21:00.836Z,1013.38
2018-08-04T03:22:00.866Z,1013.33
2018-08-04T03:23:00.885Z,1013.34
2018-08-04T03:24:00.911Z,1013.37
2018-08-04T03:25:00.936Z,1013.39
2018-08-04T03:26:00.960Z,1013.34
2018-08-04T03:28:01.015Z,1013.37
2018-08-04T03:29:01.037Z,1013.38
2018-08-04T03:30:01.060Z,1013.35
2018-08-04T03:31:01.099Z,1013.34
2018-08-04T03:32:01.111Z,1013.32
2018-08-04T03:33:01.137Z,1013.31
2018-08-04T03:34:01.162Z,1013.33
2018-08-04T03:35:01.184Z,1013.34
2018-08-04T03:36:01.209Z,1013.34
2018-08-04T03:37:01.234Z,1013.33
2018-08-04T03:38:01.267Z,1013.33
2018-08-04T03:39:01.284Z,1013.37
2018-08-04T03:40:01.310Z,1013.37
2018-08-04T03:41:01.334Z,1013.37
2018-08-04T03:42:01.359Z,1013.39
2018-08-04T03:44:01.410Z,1013.4
2018-08-04T03:45:01.434Z,1013.44
2018-08-04T03:46:01.459Z,1013.43
2018-08-04T03:47:01.485Z,1013.42
2018-08-04T03:48:01.507Z,1013.44
2018-08-04T03:49:01.534Z,1013.44
2018-08-04T03:50:01.558Z,1013.41
2018-08-04T03:51:01.584Z,1013.42
2018-08-04T03:52:01.610Z,1013.43
2018-08-04T03:53:01.631Z,1013.42
2018-08-04T03:54:01.659Z,1013.43
2018-08-04T03:55:01.689Z,1013.39
2018-08-04T03:56:01.707Z,1013.41
2018-08-04T03:57:01.734Z,1013.41
2018-08-04T03:58:01.758Z,1013.42
2018-08-04T04:00:01.809Z,1013.43
2018-08-04T04:01:01.832Z,1013.4
2018-08-04T04:02:01.857Z,1013.41
2018-08-04T04:03:01.880Z,1013.41
2018-08-04T04:04:01.906Z,1013.42
2018-08-04T04:05:01.933Z,1013.45
2018-08-04T04:06:01.957Z,1013.42
2018-08-04T04:07:01.982Z,1013.41
2018-08-04T04:08:02.007Z,1013.48
2018-08-04T04:09:02.031Z,1013.46
2018-08-04T04:10:02.058Z,1013.45
2018-08-04T04:11:02.080Z,1013.47
2018-08-04T04:12:02.106Z,1013.47
2018-08-04T04:13:02.131Z,1013.5
2018-08-04T04:14:02.155Z,1013.49
2018-08-04T04:16:02.206Z,1013.49
2018-08-04T04:17:02.232Z,1013.48
2018-08-04T04:18:02.256Z,1013.47
2018-08-04T04:19:02.281Z,1013.48
2018-08-04T04:20:02.306Z,1013.5
2018-08-04T04:21:02.331Z,1013.5
2018-08-04T04:22:02.354Z,1013.48
2018-08-04T04:23:02.380Z,1013.48
2018-08-04T04:24:02.405Z,1013.45
2018-08-04T04:25:02.430Z,1013.45
2018-08-04T04:26:02.456Z,1013.46
2018-08-04T04:27:02.481Z,1013.44
2018-08-04T04:28:02.504Z,1013.44
2018-08-04T04:29:02.529Z,1013.46
2018-08-04T04:31:02.582Z,1013.48
2018-08-04T04:32:02.606Z,1013.5
2018-08-04T04:33:02.631Z,1013.48
2018-08-04T04:34:02.656Z,1013.55
2018-08-04T04:35:02.682Z,1013.51
2018-08-04T04:36:02.706Z,1013.51
2018-08-04T04:37:02.736Z,1013.5
2018-08-04T04:38:02.757Z,1013.51
2018-08-04T04:39:02.780Z,1013.51
2018-08-04T04:40:02.806Z,1013.51
2018-08-04T04:41:02.833Z,1013.53
2018-08-04T04:42:02.858Z,1013.52
2018-08-04T04:43:02.881Z,1013.53
2018-08-04T04:44:02.907Z,1013.54
2018-08-04T04:45:02.932Z,1013.53
2018-08-04T04:46:02.958Z,1013.53
2018-08-04T04:47:02.983Z,1013.55
2018-08-04T04:48:03.006Z,1013.56
2018-08-04T04:49:03.033Z,1013.55
2018-08-04T04:50:03.056Z,1013.54
2018-08-04T04:51:03.082Z,1013.55
2018-08-04T04:52:03.110Z,1013.53
2018-08-04T04:53:03.133Z,1013.53
2018-08-04T04:54:03.157Z,1013.52
2018-08-04T04:55:03.183Z,1013.56
2018-08-04T04:56:03.209Z,1013.53
2018-08-04T04:57:03.235Z,1013.5
2018-08-04T04:58:03.258Z,1013.51
2018-08-04T04:59:03.285Z,1013.6
2018-08-04T05:00:03.310Z,1013.68
2018-08-04T05:01:03.334Z,1013.69
2018-08-04T05:03:03.388Z,1013.8
2018-08-04T05:04:03.414Z,1013.77
2018-08-04T05:05:03.443Z,1013.74
2018-08-04T05:06:03.467Z,1013.81
2018-08-04T05:07:03.494Z,1013.82
2018-08-04T05:08:03.528Z,1013.85
2018-08-04T05:09:03.548Z,1013.91
2018-08-04T05:10:03.577Z,1013.94
2018-08-04T05:11:03.604Z,1013.97
2018-08-04T05:12:03.633Z,1013.98
2018-08-04T05:13:03.662Z,1014.01
2018-08-04T05:14:03.692Z,1014.06
2018-08-04T05:15:03.721Z,1014.06
2018-08-04T05:16:03.752Z,1014.05
2018-08-04T05:17:03.780Z,1014.09
2018-08-04T05:19:03.842Z,1014.11
2018-08-04T05:20:03.875Z,1014.09
2018-08-04T05:21:03.900Z,1014.11
2018-08-04T05:22:03.933Z,1014.1
2018-08-04T05:23:03.966Z,1014.14
2018-08-04T05:24:03.994Z,1014.16
2018-08-04T05:25:04.028Z,1014.16
2018-08-04T05:26:04.059Z,1014.15
2018-08-04T05:27:04.091Z,1014.19
2018-08-04T05:28:04.123Z,1014.21
2018-08-04T05:29:04.157Z,1014.21
2018-08-04T05:30:04.191Z,1014.25
2018-08-04T05:31:04.220Z,1014.28
2018-08-04T05:32:04.369Z,1014.26
2018-08-04T05:33:04.287Z,1014.25
2018-08-04T05:35:04.355Z,1014.27
2018-08-04T05:36:04.386Z,1014.26
2018-08-04T05:37:04.420Z,1014.24
2018-08-04T05:38:04.455Z,1014.25
2018-08-04T05:39:04.488Z,1014.26
2018-08-04T05:40:04.523Z,1014.23
2018-08-04T05:41:04.556Z,1014.23
2018-08-04T05:42:04.590Z,1014.27
2018-08-04T05:43:04.624Z,1014.26
2018-08-04T05:44:04.659Z,1014.21
2018-08-04T05:45:04.692Z,1014.22
2018-08-04T05:46:04.726Z,1014.2
2018-08-04T05:47:04.763Z,1014.18
2018-08-04T05:48:04.796Z,1014.19
2018-08-04T05:49:04.831Z,1014.19
2018-08-04T05:51:04.903Z,1014.13
2018-08-04T05:52:04.935Z,1014.12
2018-08-04T05:53:04.968Z,1014.12
2018-08-04T05:54:05.005Z,1014.16
2018-08-04T05:55:05.039Z,1014.16
2018-08-04T05:56:05.074Z,1014.17
2018-08-04T05:57:05.107Z,1014.16
2018-08-04T05:58:05.187Z,1014.16
2018-08-04T05:59:05.182Z,1014.2
2018-08-04T06:00:05.214Z,1014.15
2018-08-04T06:01:05.249Z,1014.16
2018-08-04T06:02:05.285Z,1014.16
2018-08-04T06:03:05.323Z,1014.13
2018-08-04T06:04:05.356Z,1014.2
2018-08-04T06:06:05.426Z,1014.3
2018-08-04T06:07:05.461Z,1014.35
2018-08-04T06:08:05.497Z,1014.35
2018-08-04T06:09:05.534Z,1014.42
2018-08-04T06:10:05.569Z,1014.42
2018-08-04T06:11:05.602Z,1014.42
2018-08-04T06:12:05.642Z,1014.5
2018-08-04T06:13:05.676Z,1014.56
2018-08-04T06:14:05.709Z,1014.58
2018-08-04T06:15:05.746Z,1014.56
2018-08-04T06:16:05.783Z,1014.6
2018-08-04T06:17:05.820Z,1014.62
2018-08-04T06:18:05.855Z,1014.53
2018-08-04T06:19:05.892Z,1014.59
2018-08-04T06:20:05.928Z,1014.55
2018-08-04T06:21:05.964Z,1014.58
2018-08-04T06:22:06.010Z,1014.53
2018-08-04T06:23:06.037Z,1014.55
2018-08-04T06:24:06.073Z,1014.63
2018-08-04T06:25:06.122Z,1014.65
2018-08-04T06:26:06.147Z,1014.64
2018-08-04T06:27:06.183Z,1014.68
2018-08-04T06:28:06.222Z,1014.68
2018-08-04T06:29:06.256Z,1014.68
2018-08-04T06:30:06.294Z,1014.65
2018-08-04T06:31:06.331Z,1014.68
2018-08-04T06:32:06.368Z,1014.71
2018-08-04T06:33:06.404Z,1014.71
2018-08-04T06:34:06.442Z,1014.74
2018-08-04T06:35:06.484Z,1014.69
2018-08-04T06:36:06.517Z,1014.64
2018-08-04T06:38:06.593Z,1014.62
2018-08-04T06:39:06.631Z,1014.63
2018-08-04T06:40:06.668Z,1014.61
2018-08-04T06:41:06.707Z,1014.62
2018-08-04T06:42:06.744Z,1014.65
2018-08-04T06:43:06.782Z,1014.63
2018-08-04T06:44:06.822Z,1014.68
2018-08-04T06:45:06.859Z,1014.72
2018-08-04T06:46:06.898Z,1014.72
2018-08-04T06:47:06.936Z,1014.73
2018-08-04T06:48:06.974Z,1014.73
2018-08-04T06:49:07.012Z,1014.78
2018-08-04T06:50:07.060Z,1014.82
2018-08-04T06:51:07.088Z,1014.83
2018-08-04T06:52:07.130Z,1014.86
2018-08-04T06:54:07.206Z,1014.89
2018-08-04T06:55:07.242Z,1014.84
2018-08-04T06:56:07.281Z,1014.92
2018-08-04T06:57:07.323Z,1014.89
2018-08-04T06:58:07.360Z,1014.6
2018-08-04T06:59:07.399Z,1014.29
2018-08-04T07:00:07.439Z,1014.13
2018-08-04T07:01:07.477Z,1014.08
2018-08-04T07:02:07.516Z,1014.1
2018-08-04T07:03:07.556Z,1014.07
2018-08-04T07:04:07.596Z,1014.09
2018-08-04T07:05:07.635Z,1014.09
2018-08-04T07:06:07.673Z,1014.09
2018-08-04T07:07:07.712Z,1014.11
2018-08-04T07:08:07.752Z,1014.11
2018-08-04T07:10:07.831Z,1014.11
2018-08-04T07:11:07.871Z,1014.12
2018-08-04T07:12:07.909Z,1014.13
2018-08-04T07:13:07.947Z,1014.1
2018-08-04T07:14:07.990Z,1014.11
2018-08-04T07:15:08.029Z,1014.06
2018-08-04T07:16:08.069Z,1014.06
2018-08-04T07:17:08.109Z,1014.07
2018-08-04T07:18:08.148Z,1014.08
2018-08-04T07:19:08.188Z,1014.05
2018-08-04T07:20:08.227Z,1014.04
2018-08-04T07:21:08.268Z,1014.02
2018-08-04T07:22:08.307Z,1014.01
2018-08-04T07:23:08.348Z,1013.99
2018-08-04T07:24:08.387Z,1014.14
2018-08-04T07:26:08.477Z,1014.65
2018-08-04T07:27:08.506Z,1014.67
2018-08-04T07:28:08.547Z,1014.65
2018-08-04T07:29:08.636Z,1014.61
2018-08-04T07:30:08.627Z,1014.51
2018-08-04T07:31:08.666Z,1014.48
2018-08-04T07:32:08.706Z,1014.48
2018-08-04T07:33:08.749Z,1014.48
2018-08-04T07:34:08.789Z,1014.42
2018-08-04T07:35:08.827Z,1014.42
2018-08-04T07:36:08.867Z,1014.41
2018-08-04T07:37:08.908Z,1014.41
2018-08-04T07:38:08.948Z,1014.31
2018-08-04T07:39:08.989Z,1014.25
2018-08-04T07:41:09.069Z,1014.22
2018-08-04T07:42:09.108Z,1014.18
2018-08-04T07:43:09.149Z,1014.18
2018-08-04T07:44:09.189Z,1014.16
2018-08-04T07:45:09.230Z,1014.09
2018-08-04T07:46:09.269Z,1014.11
2018-08-04T07:47:09.312Z,1014.06
2018-08-04T07:48:09.350Z,1014.04
2018-08-04T07:49:09.515Z,1014.05
2018-08-04T07:50:09.430Z,1013.99
2018-08-04T07:51:09.469Z,1014.01
2018-08-04T07:52:09.511Z,1013.98
2018-08-04T07:53:09.550Z,1014.02
2018-08-04T07:54:09.593Z,1013.93
2018-08-04T07:55:09.630Z,1013.92
2018-08-04T07:56:09.670Z,1013.92
2018-08-04T07:57:09.708Z,1013.91
2018-08-04T07:58:09.756Z,1013.9
2018-08-04T07:59:09.791Z,1013.92
2018-08-04T08:00:09.833Z,1013.9
2018-08-04T08:01:09.871Z,1013.91
2018-08-04T08:02:09.911Z,1013.91
2018-08-04T08:03:09.951Z,1013.9
2018-08-04T08:04:09.991Z,1013.95
2018-08-04T08:05:10.035Z,1013.96
2018-08-04T08:06:10.072Z,1013.93
2018-08-04T08:07:10.131Z,1013.91
2018-08-04T08:08:10.152Z,1013.94
2018-08-04T08:09:10.192Z,1013.96
2018-08-04T08:10:10.233Z,1013.97
2018-08-04T08:11:10.426Z,1013.95
2018-08-04T08:13:10.355Z,1013.96
2018-08-04T08:14:10.393Z,1013.92
2018-08-04T08:15:10.432Z,1013.9
2018-08-04T08:16:10.473Z,1013.9
2018-08-04T08:17:10.514Z,1013.85
2018-08-04T08:18:10.558Z,1013.8
2018-08-04T08:19:10.594Z,1013.87
2018-08-04T08:20:10.633Z,1013.91
2018-08-04T08:21:10.674Z,1013.9
2018-08-04T08:22:10.714Z,1013.85
2018-08-04T08:23:10.776Z,1013.82
2018-08-04T08:24:10.794Z,1013.77
2018-08-04T08:25:10.835Z,1013.72
2018-08-04T08:26:10.874Z,1013.72
2018-08-04T08:27:10.915Z,1013.67
2018-08-04T08:29:11.001Z,1013.59
2018-08-04T08:30:11.036Z,1013.62
2018-08-04T08:31:11.109Z,1013.6
2018-08-04T08:32:11.116Z,1013.63
2018-08-04T08:33:11.156Z,1013.66
2018-08-04T08:34:11.195Z,1013.74
2018-08-04T08:35:11.237Z,1013.69
2018-08-04T08:36:11.274Z,1013.7
2018-08-04T08:37:11.314Z,1013.69
2018-08-04T08:38:11.356Z,1013.72
2018-08-04T08:39:11.395Z,1013.67
2018-08-04T08:40:11.436Z,1013.66
2018-08-04T08:41:11.475Z,1013.68
2018-08-04T08:42:11.516Z,1013.66
2018-08-04T08:43:11.556Z,1013.67
2018-08-04T08:45:11.635Z,1013.61
2018-08-04T08:46:11.674Z,1013.62
2018-08-04T08:47:11.775Z,1013.58
2018-08-04T08:48:11.753Z,1013.56
2018-08-04T08:49:11.794Z,1013.51
2018-08-04T08:50:11.834Z,1013.45
2018-08-04T08:51:11.874Z,1013.46
2018-08-04T08:52:11.913Z,1013.41
2018-08-04T08:53:12.039Z,1013.28
2018-08-04T08:54:12.227Z,1013.21
2018-08-04T08:55:12.032Z,1013.26
2018-08-04T08:56:12.071Z,1013.26
2018-08-04T08:57:12.111Z,1013.25
2018-08-04T08:58:12.150Z,1013.27
2018-08-04T08:59:12.189Z,1013.25
2018-08-04T09:01:12.272Z,1013.23
2018-08-04T09:02:12.308Z,1013.24
2018-08-04T09:03:12.347Z,1013.16
2018-08-04T09:04:12.387Z,1013.17
2018-08-04T09:05:12.426Z,1013.15
2018-08-04T09:06:12.465Z,1013.16
2018-08-04T09:07:12.504Z,1013.12
2018-08-04T09:08:12.543Z,1013.12
2018-08-04T09:09:12.584Z,1013.1
2018-08-04T09:10:12.626Z,1013.08
2018-08-04T09:11:12.661Z,1013.08
2018-08-04T09:12:12.701Z,1013.06
2018-08-04T09:13:12.740Z,1013.03
2018-08-04T09:14:12.778Z,1012.99
2018-08-04T09:16:12.857Z,1012.98
2018-08-04T09:17:12.895Z,1012.98
2018-08-04T09:18:12.934Z,1013.02
2018-08-04T09:19:12.972Z,1013.01
2018-08-04T09:20:13.011Z,1012.99
2018-08-04T09:21:13.050Z,1013.02
2018-08-04T09:22:13.089Z,1013.02
2018-08-04T09:23:13.128Z,1012.99
2018-08-04T09:24:13.165Z,1012.97
2018-08-04T09:25:13.205Z,1012.99
2018-08-04T09:26:13.246Z,1012.97
2018-08-04T09:27:13.283Z,1012.99
2018-08-04T09:28:13.321Z,1012.97
2018-08-04T09:29:13.360Z,1012.96
2018-08-04T09:30:13.406Z,1012.94
2018-08-04T09:31:13.437Z,1013.02
2018-08-04T09:32:13.475Z,1013.04
2018-08-04T09:33:13.513Z,1012.99
2018-08-04T09:34:13.552Z,1013.03
2018-08-04T09:35:13.590Z,1012.99
2018-08-04T09:36:13.628Z,1012.99
2018-08-04T09:37:13.716Z,1013.01
2018-08-04T09:38:13.706Z,1013
2018-08-04T09:39:13.792Z,1012.96
2018-08-04T09:40:13.782Z,1012.97
2018-08-04T09:41:13.829Z,1012.94
2018-08-04T09:42:13.865Z,1012.96
2018-08-04T09:43:13.898Z,1012.93
2018-08-04T09:44:13.936Z,1012.96
2018-08-04T09:45:13.975Z,1012.95
2018-08-04T09:46:14.011Z,1012.91
2018-08-04T09:48:14.089Z,1012.9
2018-08-04T09:49:14.127Z,1012.88
2018-08-04T09:50:14.166Z,1012.88
2018-08-04T09:51:14.204Z,1012.89
2018-08-04T09:52:14.242Z,1012.88
2018-08-04T09:53:14.280Z,1012.84
2018-08-04T09:54:14.315Z,1012.79
2018-08-04T09:55:14.357Z,1012.79
2018-08-04T09:56:14.393Z,1012.75
2018-08-04T09:57:14.431Z,1012.78
2018-08-04T09:58:14.469Z,1012.79
2018-08-04T09:59:14.507Z,1012.8
2018-08-04T10:00:14.546Z,1012.84
2018-08-04T10:01:14.582Z,1012.83
2018-08-04T10:02:14.621Z,1012.79
2018-08-04T10:04:14.696Z,1012.76
2018-08-04T10:05:14.775Z,1012.78
2018-08-04T10:06:14.771Z,1012.75
2018-08-04T10:07:14.809Z,1012.75
2018-08-04T10:08:14.846Z,1012.77
2018-08-04T10:09:14.884Z,1012.71
2018-08-04T10:10:14.923Z,1012.74
2018-08-04T10:11:14.982Z,1012.7
2018-08-04T10:12:14.998Z,1012.67
2018-08-04T10:13:15.037Z,1012.68
2018-08-04T10:14:15.073Z,1012.68
2018-08-04T10:15:15.111Z,1012.64
2018-08-04T10:16:15.147Z,1012.7
2018-08-04T10:17:15.184Z,1012.69
2018-08-04T10:18:15.223Z,1012.7
2018-08-04T10:20:15.335Z,1012.67
2018-08-04T10:21:15.334Z,1012.67
2018-08-04T10:22:15.373Z,1012.64
2018-08-04T10:23:15.408Z,1012.66
2018-08-04T10:24:15.453Z,1012.6
2018-08-04T10:25:15.488Z,1012.6
2018-08-04T10:26:15.523Z,1012.61
2018-08-04T10:27:15.559Z,1012.64
2018-08-04T10:28:15.597Z,1012.64
2018-08-04T10:29:15.634Z,1012.63
2018-08-04T10:30:15.671Z,1012.6
2018-08-04T10:31:15.708Z,1012.64
2018-08-04T10:32:15.865Z,1012.63
2018-08-04T10:33:15.782Z,1012.57
2018-08-04T10:34:15.818Z,1012.61
2018-08-04T10:36:15.893Z,1012.57
2018-08-04T10:37:15.931Z,1012.59
2018-08-04T10:38:15.966Z,1012.59
2018-08-04T10:39:16.004Z,1012.55
2018-08-04T10:40:16.041Z,1012.57
2018-08-04T10:41:16.077Z,1012.56
2018-08-04T10:42:16.114Z,1012.54
2018-08-04T10:43:16.150Z,1012.54
2018-08-04T10:44:16.188Z,1012.56
2018-08-04T10:45:16.230Z,1012.59
2018-08-04T10:46:16.261Z,1012.61
2018-08-04T10:47:16.301Z,1012.57
2018-08-04T10:48:16.334Z,1012.58
2018-08-04T10:49:16.372Z,1012.57
2018-08-04T10:51:16.445Z,1012.5
2018-08-04T10:52:16.484Z,1012.49
2018-08-04T10:53:16.516Z,1012.49
2018-08-04T10:54:16.554Z,1012.47
2018-08-04T10:55:16.595Z,1012.5
2018-08-04T10:56:16.626Z,1012.48
2018-08-04T10:57:16.663Z,1012.5
2018-08-04T10:58:16.698Z,1012.52
2018-08-04T10:59:16.734Z,1012.42
2018-08-04T11:00:16.771Z,1012.41
2018-08-04T11:01:16.808Z,1012.42
2018-08-04T11:02:16.843Z,1012.39
2018-08-04T11:03:16.879Z,1012.39
2018-08-04T11:04:16.916Z,1012.35
2018-08-04T11:05:16.952Z,1012.35
2018-08-04T11:06:16.988Z,1012.33
2018-08-04T11:07:17.044Z,1012.31
2018-08-04T11:08:17.059Z,1012.35
2018-08-04T11:09:17.100Z,1012.31
2018-08-04T11:10:17.131Z,1012.36
2018-08-04T11:11:17.168Z,1012.32
2018-08-04T11:12:17.204Z,1012.34
2018-08-04T11:13:17.244Z,1012.34
2018-08-04T11:14:17.275Z,1012.34
2018-08-04T11:15:17.312Z,1012.35
2018-08-04T11:16:17.349Z,1012.34
2018-08-04T11:17:17.384Z,1012.28
2018-08-04T11:18:17.422Z,1012.3
2018-08-04T11:19:17.455Z,1012.29
2018-08-04T11:20:17.492Z,1012.3
2018-08-04T11:21:17.526Z,1012.32
2018-08-04T11:23:17.601Z,1012.28
2018-08-04T11:24:17.702Z,1012.28
2018-08-04T11:25:17.671Z,1012.28
2018-08-04T11:26:17.705Z,1012.3
2018-08-04T11:27:17.742Z,1012.3
2018-08-04T11:28:17.779Z,1012.27
2018-08-04T11:29:17.812Z,1012.28
2018-08-04T11:30:17.847Z,1012.26
2018-08-04T11:31:17.883Z,1012.21
2018-08-04T11:32:17.918Z,1012.19
2018-08-04T11:33:17.954Z,1012.22
2018-08-04T11:34:17.990Z,1012.19
2018-08-04T11:35:18.025Z,1012.15
2018-08-04T11:36:18.065Z,1012.15
2018-08-04T11:37:18.112Z,1012.17
2018-08-04T11:39:18.166Z,1012.14
2018-08-04T11:40:18.201Z,1012.14
2018-08-04T11:41:18.236Z,1012.1
2018-08-04T11:42:18.271Z,1012.13
2018-08-04T11:43:18.305Z,1012.13
2018-08-04T11:44:18.341Z,1012.12
2018-08-04T11:45:18.377Z,1012.09
2018-08-04T11:46:18.412Z,1012.1
2018-08-04T11:47:18.451Z,1012.12
2018-08-04T11:48:18.481Z,1012.11
2018-08-04T11:49:18.516Z,1012.16
2018-08-04T11:50:18.552Z,1012.14
2018-08-04T11:51:18.584Z,1012.14
2018-08-04T11:52:18.623Z,1012.14
2018-08-04T11:53:18.656Z,1012.11
2018-08-04T11:55:18.725Z,1012.12
2018-08-04T11:56:18.760Z,1012.13
2018-08-04T11:57:18.795Z,1012.08
2018-08-04T11:58:18.863Z,1012.06
2018-08-04T11:59:18.865Z,1012.05
2018-08-04T12:00:18.899Z,1012.08
2018-08-04T12:01:18.933Z,1012.05
2018-08-04T12:02:18.967Z,1012.03
2018-08-04T12:03:19.002Z,1012.01
2018-08-04T12:04:19.038Z,1012.01
2018-08-04T12:05:19.075Z,1011.99
2018-08-04T12:06:19.109Z,1012
2018-08-04T12:07:19.141Z,1011.99
2018-08-04T12:08:19.175Z,1012
2018-08-04T12:09:19.210Z,1012.02
2018-08-04T12:11:19.280Z,1012.08
2018-08-04T12:12:19.315Z,1012.03
2018-08-04T12:13:19.347Z,1012.04
2018-08-04T12:14:19.382Z,1012.03
2018-08-04T12:15:19.417Z,1012.07
2018-08-04T12:16:19.451Z,1012.06
2018-08-04T12:17:19.485Z,1012.01
2018-08-04T12:18:19.523Z,1012.02
2018-08-04T12:19:19.556Z,1011.99
2018-08-04T12:20:19.589Z,1012.02
2018-08-04T12:21:19.624Z,1012.01
2018-08-04T12:22:19.658Z,1012.01
2018-08-04T12:23:19.692Z,1012
2018-08-04T12:24:19.727Z,1011.97
2018-08-04T12:26:19.796Z,1011.93
2018-08-04T12:27:19.829Z,1011.9
2018-08-04T12:28:19.866Z,1011.89
2018-08-04T12:29:19.899Z,1011.92
2018-08-04T12:30:19.933Z,1011.86
2018-08-04T12:31:20.005Z,1011.84
2018-08-04T12:32:20.001Z,1011.8
2018-08-04T12:33:20.036Z,1011.79
2018-08-04T12:34:20.069Z,1011.81
2018-08-04T12:35:20.102Z,1011.84
2018-08-04T12:36:20.137Z,1011.83
2018-08-04T12:37:20.172Z,1011.82
2018-08-04T12:38:20.205Z,1011.86
2018-08-04T12:39:20.239Z,1011.8
2018-08-04T12:40:20.274Z,1011.78
2018-08-04T12:41:20.306Z,1011.75
2018-08-04T12:42:20.384Z,1011.76
2018-08-04T12:43:20.375Z,1011.76
2018-08-04T12:44:20.408Z,1011.67
2018-08-04T12:45:20.443Z,1011.71
2018-08-04T12:46:20.477Z,1011.66
2018-08-04T12:47:20.515Z,1011.67
2018-08-04T12:48:20.545Z,1011.68
2018-08-04T12:49:20.578Z,1011.69